Denver, Iowa
Current Conditions -  °F | °C
As of 5:54 AM on Sunday 23 Nov 2014 (Local Time) from KALO Reporting Station
Haze Haze  
Wind Chill: 10°   Ceiling: 600
Heat Index: 10°   Visibility: 5mi
Dew Point: 10°   Wind: 13mph
Humidity: 100%   Direction: 180°S
Pressure: 29.55"   Gusts: NA
Location:  42.67°N, 92.34°W
Report Text: KALO 231154Z 18011KT 5SM BR OVC006 10/10 A2955 RMK AO2 CIG 005V010 SLP010 T01000100 10111 20100 56013 $
Loading
Personal Weather Stations






























Interactive Weather Map New forecast layout! Learn more

10-Day Weather Forecast

Advertisements
Track Severe Weather on mobile